sensor_id;sensor_type;location;lat;lon;timestamp;temperature;humidity
418;DHT22;49;48.530;9.200;2022-12-29T00:00:44;11.80;44.10
418;DHT22;49;48.530;9.200;2022-12-29T00:03:22;12.10;45.10
418;DHT22;49;48.530;9.200;2022-12-29T00:05:56;12.10;45.40
418;DHT22;49;48.530;9.200;2022-12-29T00:08:24;12.30;41.00
418;DHT22;49;48.530;9.200;2022-12-29T00:11:05;12.30;44.70
418;DHT22;49;48.530;9.200;2022-12-29T00:13:54;12.30;38.50
418;DHT22;49;48.530;9.200;2022-12-29T00:16:52;12.40;38.40
418;DHT22;49;48.530;9.200;2022-12-29T00:19:38;12.50;38.30
418;DHT22;49;48.530;9.200;2022-12-29T00:22:37;12.40;39.40
418;DHT22;49;48.530;9.200;2022-12-29T00:32:12;12.80;36.00
418;DHT22;49;48.530;9.200;2022-12-29T00:34:56;12.70;37.90
418;DHT22;49;48.530;9.200;2022-12-29T00:38:01;12.50;43.10
418;DHT22;49;48.530;9.200;2022-12-29T00:43:56;13.20;37.80
418;DHT22;49;48.530;9.200;2022-12-29T00:46:40;13.40;37.60
418;DHT22;49;48.530;9.200;2022-12-29T00:49:29;13.20;33.80
418;DHT22;49;48.530;9.200;2022-12-29T00:52:13;13.00;40.40
418;DHT22;49;48.530;9.200;2022-12-29T00:54:42;13.10;34.00
418;DHT22;49;48.530;9.200;2022-12-29T00:57:23;13.20;37.20
418;DHT22;49;48.530;9.200;2022-12-29T00:59:58;13.60;37.30
418;DHT22;49;48.530;9.200;2022-12-29T01:02:30;13.80;36.30
418;DHT22;49;48.530;9.200;2022-12-29T01:05:00;14.00;31.70
418;DHT22;49;48.530;9.200;2022-12-29T01:07:30;14.00;31.80
418;DHT22;49;48.530;9.200;2022-12-29T01:10:00;14.00;33.90
418;DHT22;49;48.530;9.200;2022-12-29T01:12:40;14.10;32.50
418;DHT22;49;48.530;9.200;2022-12-29T01:15:12;14.00;32.20
418;DHT22;49;48.530;9.200;2022-12-29T01:17:42;14.00;31.10
418;DHT22;49;48.530;9.200;2022-12-29T01:20:13;13.90;31.50
418;DHT22;49;48.530;9.200;2022-12-29T01:22:42;14.00;34.30
418;DHT22;49;48.530;9.200;2022-12-29T01:25:17;14.10;31.60
418;DHT22;49;48.530;9.200;2022-12-29T01:27:46;14.00;34.40
418;DHT22;49;48.530;9.200;2022-12-29T01:30:13;13.80;31.60
418;DHT22;49;48.530;9.200;2022-12-29T01:32:44;13.90;31.70
418;DHT22;49;48.530;9.200;2022-12-29T01:35:27;13.80;31.70
418;DHT22;49;48.530;9.200;2022-12-29T01:37:58;13.70;31.50
418;DHT22;49;48.530;9.200;2022-12-29T01:40:45;13.90;33.90
418;DHT22;49;48.530;9.200;2022-12-29T01:43:15;13.70;32.50
418;DHT22;49;48.530;9.200;2022-12-29T01:45:51;13.70;32.20
418;DHT22;49;48.530;9.200;2022-12-29T01:48:24;13.90;31.60
418;DHT22;49;48.530;9.200;2022-12-29T01:50:59;14.00;32.80
418;DHT22;49;48.530;9.200;2022-12-29T01:53:33;14.10;33.50
418;DHT22;49;48.530;9.200;2022-12-29T01:56:10;14.10;31.90
418;DHT22;49;48.530;9.200;2022-12-29T01:58:48;14.10;33.80
418;DHT22;49;48.530;9.200;2022-12-29T02:01:25;14.10;31.90
418;DHT22;49;48.530;9.200;2022-12-29T02:04:03;14.20;36.30
418;DHT22;49;48.530;9.200;2022-12-29T02:06:40;14.20;32.00
418;DHT22;49;48.530;9.200;2022-12-29T02:09:15;14.30;32.30
418;DHT22;49;48.530;9.200;2022-12-29T02:11:53;14.40;35.80
418;DHT22;49;48.530;9.200;2022-12-29T02:14:43;14.50;35.70
418;DHT22;49;48.530;9.200;2022-12-29T02:17:45;14.40;36.10
418;DHT22;49;48.530;9.200;2022-12-29T02:21:05;14.50;34.50
418;DHT22;49;48.530;9.200;2022-12-29T02:30:17;14.30;32.10
418;DHT22;49;48.530;9.200;2022-12-29T02:33:04;14.50;33.40
418;DHT22;49;48.530;9.200;2022-12-29T02:36:12;14.20;31.40
418;DHT22;49;48.530;9.200;2022-12-29T02:39:04;14.10;32.80
418;DHT22;49;48.530;9.200;2022-12-29T02:42:07;14.30;32.00
418;DHT22;49;48.530;9.200;2022-12-29T02:44:55;14.10;31.90
418;DHT22;49;48.530;9.200;2022-12-29T02:47:34;14.20;32.90
418;DHT22;49;48.530;9.200;2022-12-29T02:50:20;14.50;31.50
418;DHT22;49;48.530;9.200;2022-12-29T02:52:58;14.30;30.60
418;DHT22;49;48.530;9.200;2022-12-29T02:55:34;14.40;30.00
418;DHT22;49;48.530;9.200;2022-12-29T03:01:52;14.70;31.20
418;DHT22;49;48.530;9.200;2022-12-29T03:04:41;14.80;29.80
418;DHT22;49;48.530;9.200;2022-12-29T03:07:27;14.80;27.90
418;DHT22;49;48.530;9.200;2022-12-29T03:10:17;14.60;31.30
418;DHT22;49;48.530;9.200;2022-12-29T03:12:56;14.50;29.70
418;DHT22;49;48.530;9.200;2022-12-29T03:15:55;14.40;28.50
418;DHT22;49;48.530;9.200;2022-12-29T03:18:50;14.30;28.70
418;DHT22;49;48.530;9.200;2022-12-29T03:21:41;14.20;29.10
418;DHT22;49;48.530;9.200;2022-12-29T03:24:31;14.10;28.80
418;DHT22;49;48.530;9.200;2022-12-29T03:27:13;14.00;28.80
418;DHT22;49;48.530;9.200;2022-12-29T03:29:46;14.30;28.00
418;DHT22;49;48.530;9.200;2022-12-29T03:32:41;14.30;27.90
418;DHT22;49;48.530;9.200;2022-12-29T03:35:14;14.10;27.50
418;DHT22;49;48.530;9.200;2022-12-29T03:37:49;14.20;28.10
418;DHT22;49;48.530;9.200;2022-12-29T03:40:34;14.00;28.10
418;DHT22;49;48.530;9.200;2022-12-29T03:43:03;14.20;28.10
418;DHT22;49;48.530;9.200;2022-12-29T03:45:35;14.50;27.80
418;DHT22;49;48.530;9.200;2022-12-29T03:48:11;14.20;28.00
418;DHT22;49;48.530;9.200;2022-12-29T03:50:41;14.00;28.20
418;DHT22;49;48.530;9.200;2022-12-29T03:53:14;14.30;29.60
418;DHT22;49;48.530;9.200;2022-12-29T03:55:42;14.60;26.80
418;DHT22;49;48.530;9.200;2022-12-29T03:58:09;14.50;27.00
418;DHT22;49;48.530;9.200;2022-12-29T04:00:39;14.60;26.10
418;DHT22;49;48.530;9.200;2022-12-29T04:03:13;14.50;26.00
418;DHT22;49;48.530;9.200;2022-12-29T04:05:56;14.90;25.30
418;DHT22;49;48.530;9.200;2022-12-29T04:08:28;15.10;24.10
418;DHT22;49;48.530;9.200;2022-12-29T04:11:01;15.00;24.30
418;DHT22;49;48.530;9.200;2022-12-29T04:13:36;15.10;25.00
418;DHT22;49;48.530;9.200;2022-12-29T04:16:07;15.00;25.40
418;DHT22;49;48.530;9.200;2022-12-29T04:18:37;15.00;25.30
418;DHT22;49;48.530;9.200;2022-12-29T04:21:06;14.90;25.40
418;DHT22;49;48.530;9.200;2022-12-29T04:23:40;14.90;25.30
418;DHT22;49;48.530;9.200;2022-12-29T04:26:19;15.00;25.10
418;DHT22;49;48.530;9.200;2022-12-29T04:28:54;15.00;25.40
418;DHT22;49;48.530;9.200;2022-12-29T04:31:23;15.00;26.70
418;DHT22;49;48.530;9.200;2022-12-29T04:33:54;14.80;27.00
418;DHT22;49;48.530;9.200;2022-12-29T04:36:29;14.80;26.30
418;DHT22;49;48.530;9.200;2022-12-29T04:39:02;14.80;28.10
418;DHT22;49;48.530;9.200;2022-12-29T04:41:41;14.70;27.90
418;DHT22;49;48.530;9.200;2022-12-29T04:44:11;14.70;30.90
418;DHT22;49;48.530;9.200;2022-12-29T04:46:40;14.80;28.30
418;DHT22;49;48.530;9.200;2022-12-29T04:49:24;14.80;29.60
418;DHT22;49;48.530;9.200;2022-12-29T04:51:51;14.80;26.80
418;DHT22;49;48.530;9.200;2022-12-29T04:54:28;14.90;27.10
418;DHT22;49;48.530;9.200;2022-12-29T04:57:02;14.80;27.60
418;DHT22;49;48.530;9.200;2022-12-29T04:59:34;14.70;26.20
418;DHT22;49;48.530;9.200;2022-12-29T05:02:07;14.70;26.20
418;DHT22;49;48.530;9.200;2022-12-29T05:04:41;14.60;26.10
418;DHT22;49;48.530;9.200;2022-12-29T05:07:24;14.40;27.40
418;DHT22;49;48.530;9.200;2022-12-29T05:09:51;14.40;26.20
418;DHT22;49;48.530;9.200;2022-12-29T05:12:41;14.40;27.30
418;DHT22;49;48.530;9.200;2022-12-29T05:15:24;14.50;27.30
418;DHT22;49;48.530;9.200;2022-12-29T05:17:51;14.50;26.50
418;DHT22;49;48.530;9.200;2022-12-29T05:20:21;14.50;27.90
418;DHT22;49;48.530;9.200;2022-12-29T05:22:55;14.50;27.20
418;DHT22;49;48.530;9.200;2022-12-29T05:25:25;14.60;27.20
418;DHT22;49;48.530;9.200;2022-12-29T05:28:09;14.70;28.40
418;DHT22;49;48.530;9.200;2022-12-29T05:30:39;14.90;26.30
418;DHT22;49;48.530;9.200;2022-12-29T05:33:13;14.90;26.20
418;DHT22;49;48.530;9.200;2022-12-29T05:35:43;14.90;25.90
418;DHT22;49;48.530;9.200;2022-12-29T05:38:17;15.00;25.90
418;DHT22;49;48.530;9.200;2022-12-29T05:40:52;14.80;29.50
418;DHT22;49;48.530;9.200;2022-12-29T05:43:21;14.80;28.70
418;DHT22;49;48.530;9.200;2022-12-29T05:45:56;14.90;28.40
418;DHT22;49;48.530;9.200;2022-12-29T05:48:25;14.80;26.30
418;DHT22;49;48.530;9.200;2022-12-29T05:50:56;14.80;27.50
418;DHT22;49;48.530;9.200;2022-12-29T05:53:26;14.70;27.50
418;DHT22;49;48.530;9.200;2022-12-29T05:55:53;14.20;30.10
418;DHT22;49;48.530;9.200;2022-12-29T06:01:04;13.80;30.60
418;DHT22;49;48.530;9.200;2022-12-29T06:03:44;13.60;31.10
418;DHT22;49;48.530;9.200;2022-12-29T06:06:14;13.40;32.70
418;DHT22;49;48.530;9.200;2022-12-29T06:08:41;13.80;33.30
418;DHT22;49;48.530;9.200;2022-12-29T06:11:08;14.00;30.80
418;DHT22;49;48.530;9.200;2022-12-29T06:13:38;14.30;29.80
418;DHT22;49;48.530;9.200;2022-12-29T06:16:08;14.50;30.00
418;DHT22;49;48.530;9.200;2022-12-29T06:18:38;14.50;29.20
418;DHT22;49;48.530;9.200;2022-12-29T06:21:10;14.60;29.40
418;DHT22;49;48.530;9.200;2022-12-29T06:23:37;14.80;28.50
418;DHT22;49;48.530;9.200;2022-12-29T06:26:13;14.60;29.50
418;DHT22;49;48.530;9.200;2022-12-29T06:28:48;14.70;29.40
418;DHT22;49;48.530;9.200;2022-12-29T06:31:15;14.70;29.60
418;DHT22;49;48.530;9.200;2022-12-29T06:33:53;14.80;30.30
418;DHT22;49;48.530;9.200;2022-12-29T06:36:24;14.80;29.90
418;DHT22;49;48.530;9.200;2022-12-29T06:38:57;14.90;29.50
418;DHT22;49;48.530;9.200;2022-12-29T06:41:31;14.70;29.90
418;DHT22;49;48.530;9.200;2022-12-29T06:44:15;14.50;31.50
418;DHT22;49;48.530;9.200;2022-12-29T06:46:51;14.70;30.10
418;DHT22;49;48.530;9.200;2022-12-29T06:49:30;14.70;32.40
418;DHT22;49;48.530;9.200;2022-12-29T06:51:59;14.80;30.40
418;DHT22;49;48.530;9.200;2022-12-29T06:54:37;15.10;29.50
418;DHT22;49;48.530;9.200;2022-12-29T06:57:22;15.10;29.10
418;DHT22;49;48.530;9.200;2022-12-29T07:00:05;15.10;30.30
418;DHT22;49;48.530;9.200;2022-12-29T07:02:38;14.60;31.20
418;DHT22;49;48.530;9.200;2022-12-29T07:05:10;14.50;33.80
418;DHT22;49;48.530;9.200;2022-12-29T07:07:39;14.90;31.80
418;DHT22;49;48.530;9.200;2022-12-29T07:10:09;14.80;32.30
418;DHT22;49;48.530;9.200;2022-12-29T07:12:41;14.90;31.10
418;DHT22;49;48.530;9.200;2022-12-29T07:15:13;15.00;31.00
418;DHT22;49;48.530;9.200;2022-12-29T07:17:45;15.00;30.60
418;DHT22;49;48.530;9.200;2022-12-29T07:20:21;15.30;29.80
418;DHT22;49;48.530;9.200;2022-12-29T07:22:51;15.40;29.00
418;DHT22;49;48.530;9.200;2022-12-29T07:25:32;15.30;31.00
418;DHT22;49;48.530;9.200;2022-12-29T07:28:00;15.10;30.20
418;DHT22;49;48.530;9.200;2022-12-29T07:30:31;15.20;29.50
418;DHT22;49;48.530;9.200;2022-12-29T07:32:58;15.10;30.00
418;DHT22;49;48.530;9.200;2022-12-29T07:35:40;14.50;31.80
418;DHT22;49;48.530;9.200;2022-12-29T07:38:15;14.60;32.80
418;DHT22;49;48.530;9.200;2022-12-29T07:41:00;14.80;32.50
418;DHT22;49;48.530;9.200;2022-12-29T07:43:34;14.40;33.30
418;DHT22;49;48.530;9.200;2022-12-29T07:46:06;14.70;32.80
418;DHT22;49;48.530;9.200;2022-12-29T07:48:34;14.50;32.70
418;DHT22;49;48.530;9.200;2022-12-29T07:51:03;14.80;31.90
418;DHT22;49;48.530;9.200;2022-12-29T07:53:31;14.60;32.40
418;DHT22;49;48.530;9.200;2022-12-29T07:56:02;14.50;33.30
418;DHT22;49;48.530;9.200;2022-12-29T07:58:33;14.60;33.00
418;DHT22;49;48.530;9.200;2022-12-29T08:01:09;14.90;32.20
418;DHT22;49;48.530;9.200;2022-12-29T08:03:38;14.90;31.20
418;DHT22;49;48.530;9.200;2022-12-29T08:06:11;14.70;32.40
418;DHT22;49;48.530;9.200;2022-12-29T08:08:46;14.90;31.80
418;DHT22;49;48.530;9.200;2022-12-29T08:11:30;14.80;32.10
418;DHT22;49;48.530;9.200;2022-12-29T08:14:06;15.30;30.00
418;DHT22;49;48.530;9.200;2022-12-29T08:16:44;15.70;28.50
418;DHT22;49;48.530;9.200;2022-12-29T08:19:16;15.80;27.60
418;DHT22;49;48.530;9.200;2022-12-29T08:21:43;15.70;26.90
418;DHT22;49;48.530;9.200;2022-12-29T08:24:10;15.40;28.70
418;DHT22;49;48.530;9.200;2022-12-29T08:26:40;15.40;29.90
418;DHT22;49;48.530;9.200;2022-12-29T08:29:07;15.50;27.80
418;DHT22;49;48.530;9.200;2022-12-29T08:31:35;15.60;28.60
418;DHT22;49;48.530;9.200;2022-12-29T08:34:05;15.50;29.80
418;DHT22;49;48.530;9.200;2022-12-29T08:36:40;15.30;28.70
418;DHT22;49;48.530;9.200;2022-12-29T08:39:09;15.50;28.40
418;DHT22;49;48.530;9.200;2022-12-29T08:41:42;15.20;29.10
418;DHT22;49;48.530;9.200;2022-12-29T08:44:13;15.40;27.70
418;DHT22;49;48.530;9.200;2022-12-29T08:46:40;15.30;28.00
418;DHT22;49;48.530;9.200;2022-12-29T08:49:10;15.40;28.10
418;DHT22;49;48.530;9.200;2022-12-29T08:51:45;15.10;29.10
418;DHT22;49;48.530;9.200;2022-12-29T08:54:13;14.80;29.70
418;DHT22;49;48.530;9.200;2022-12-29T08:56:40;15.10;29.30
418;DHT22;49;48.530;9.200;2022-12-29T08:59:11;14.90;29.60
418;DHT22;49;48.530;9.200;2022-12-29T09:01:38;15.00;29.40
418;DHT22;49;48.530;9.200;2022-12-29T09:04:07;14.90;29.90
418;DHT22;49;48.530;9.200;2022-12-29T09:06:34;14.90;29.80
418;DHT22;49;48.530;9.200;2022-12-29T09:09:03;14.70;30.70
418;DHT22;49;48.530;9.200;2022-12-29T09:11:30;14.60;31.30
418;DHT22;49;48.530;9.200;2022-12-29T09:13:57;14.50;32.00
418;DHT22;49;48.530;9.200;2022-12-29T09:16:25;14.80;31.00
418;DHT22;49;48.530;9.200;2022-12-29T09:18:52;14.70;31.50
418;DHT22;49;48.530;9.200;2022-12-29T09:21:22;14.80;31.90
418;DHT22;49;48.530;9.200;2022-12-29T09:23:49;14.50;33.60
418;DHT22;49;48.530;9.200;2022-12-29T09:26:16;14.40;34.60
418;DHT22;49;48.530;9.200;2022-12-29T09:28:43;14.00;37.00
418;DHT22;49;48.530;9.200;2022-12-29T09:31:12;14.10;38.30
418;DHT22;49;48.530;9.200;2022-12-29T09:33:39;14.30;37.60
418;DHT22;49;48.530;9.200;2022-12-29T09:36:12;14.10;38.90
418;DHT22;49;48.530;9.200;2022-12-29T09:38:44;14.30;38.60
418;DHT22;49;48.530;9.200;2022-12-29T09:41:20;14.40;37.40
418;DHT22;49;48.530;9.200;2022-12-29T09:44:16;14.20;38.60
418;DHT22;49;48.530;9.200;2022-12-29T09:46:48;14.10;39.00
418;DHT22;49;48.530;9.200;2022-12-29T09:49:28;14.40;37.90
418;DHT22;49;48.530;9.200;2022-12-29T09:51:59;14.30;38.80
418;DHT22;49;48.530;9.200;2022-12-29T09:54:39;14.20;39.30
418;DHT22;49;48.530;9.200;2022-12-29T09:57:16;14.20;39.30
418;DHT22;49;48.530;9.200;2022-12-29T09:59:45;14.10;39.20
418;DHT22;49;48.530;9.200;2022-12-29T10:02:29;14.30;39.30
418;DHT22;49;48.530;9.200;2022-12-29T10:04:58;14.50;37.80
418;DHT22;49;48.530;9.200;2022-12-29T10:07:44;14.80;37.50
418;DHT22;49;48.530;9.200;2022-12-29T10:10:48;15.20;35.20
418;DHT22;49;48.530;9.200;2022-12-29T10:13:28;14.90;36.20
418;DHT22;49;48.530;9.200;2022-12-29T10:16:02;14.80;36.30
418;DHT22;49;48.530;9.200;2022-12-29T10:21:40;14.80;36.90
418;DHT22;49;48.530;9.200;2022-12-29T10:24:12;14.60;38.10
418;DHT22;49;48.530;9.200;2022-12-29T10:26:56;14.60;38.10
418;DHT22;49;48.530;9.200;2022-12-29T10:29:36;14.40;38.30
418;DHT22;49;48.530;9.200;2022-12-29T10:32:17;14.50;38.80
418;DHT22;49;48.530;9.200;2022-12-29T10:34:58;14.60;39.20
418;DHT22;49;48.530;9.200;2022-12-29T10:37:40;14.40;39.50
418;DHT22;49;48.530;9.200;2022-12-29T10:40:18;14.20;41.10
418;DHT22;49;48.530;9.200;2022-12-29T10:42:52;14.40;40.50
418;DHT22;49;48.530;9.200;2022-12-29T10:45:27;14.30;41.10
418;DHT22;49;48.530;9.200;2022-12-29T10:48:00;14.30;42.60
418;DHT22;49;48.530;9.200;2022-12-29T10:50:29;14.10;42.60
418;DHT22;49;48.530;9.200;2022-12-29T10:53:25;14.20;43.20
418;DHT22;49;48.530;9.200;2022-12-29T10:55:56;14.30;41.80
418;DHT22;49;48.530;9.200;2022-12-29T10:58:28;14.30;43.20
418;DHT22;49;48.530;9.200;2022-12-29T11:01:12;14.60;41.50
418;DHT22;49;48.530;9.200;2022-12-29T11:03:58;14.70;41.70
418;DHT22;49;48.530;9.200;2022-12-29T11:06:35;14.40;42.80
418;DHT22;49;48.530;9.200;2022-12-29T11:12:25;14.30;43.80
418;DHT22;49;48.530;9.200;2022-12-29T11:15:44;14.60;43.60
418;DHT22;49;48.530;9.200;2022-12-29T11:18:41;14.50;43.90
418;DHT22;49;48.530;9.200;2022-12-29T11:21:49;14.70;43.50
418;DHT22;49;48.530;9.200;2022-12-29T11:25:05;14.50;46.60
418;DHT22;49;48.530;9.200;2022-12-29T11:28:45;14.30;48.60
418;DHT22;49;48.530;9.200;2022-12-29T11:31:05;14.30;51.80
418;DHT22;49;48.530;9.200;2022-12-29T11:33:37;14.20;57.70
418;DHT22;49;48.530;9.200;2022-12-29T11:36:12;14.20;63.30
418;DHT22;49;48.530;9.200;2022-12-29T11:38:53;14.10;64.00
418;DHT22;49;48.530;9.200;2022-12-29T11:41:32;14.10;65.10
418;DHT22;49;48.530;9.200;2022-12-29T11:44:14;14.00;66.90
418;DHT22;49;48.530;9.200;2022-12-29T11:46:54;13.90;70.20
418;DHT22;49;48.530;9.200;2022-12-29T11:49:26;14.40;67.10
418;DHT22;49;48.530;9.200;2022-12-29T11:51:54;14.50;65.40
418;DHT22;49;48.530;9.200;2022-12-29T11:54:27;14.40;66.20
418;DHT22;49;48.530;9.200;2022-12-29T11:57:08;14.50;64.80
418;DHT22;49;48.530;9.200;2022-12-29T11:59:49;14.50;63.10
418;DHT22;49;48.530;9.200;2022-12-29T12:02:45;14.30;64.20
418;DHT22;49;48.530;9.200;2022-12-29T12:05:22;14.40;63.90
418;DHT22;49;48.530;9.200;2022-12-29T12:08:01;14.70;60.90
418;DHT22;49;48.530;9.200;2022-12-29T12:10:46;14.70;59.20
418;DHT22;49;48.530;9.200;2022-12-29T12:13:40;15.10;56.70
418;DHT22;49;48.530;9.200;2022-12-29T12:16:15;14.60;60.50
418;DHT22;49;48.530;9.200;2022-12-29T12:18:49;14.40;61.90
418;DHT22;49;48.530;9.200;2022-12-29T12:21:27;13.80;64.70
418;DHT22;49;48.530;9.200;2022-12-29T12:24:07;13.60;66.90
418;DHT22;49;48.530;9.200;2022-12-29T12:26:43;13.60;66.50
418;DHT22;49;48.530;9.200;2022-12-29T12:29:22;14.00;67.00
418;DHT22;49;48.530;9.200;2022-12-29T12:31:57;13.90;69.70
418;DHT22;49;48.530;9.200;2022-12-29T12:34:35;13.90;72.00
418;DHT22;49;48.530;9.200;2022-12-29T12:37:20;13.90;72.70
418;DHT22;49;48.530;9.200;2022-12-29T12:40:09;13.70;75.90
418;DHT22;49;48.530;9.200;2022-12-29T12:42:52;14.10;73.50
418;DHT22;49;48.530;9.200;2022-12-29T12:45:49;13.90;74.10
418;DHT22;49;48.530;9.200;2022-12-29T12:48:41;14.20;73.00
418;DHT22;49;48.530;9.200;2022-12-29T12:51:31;14.20;73.50
418;DHT22;49;48.530;9.200;2022-12-29T12:54:09;14.00;74.40
418;DHT22;49;48.530;9.200;2022-12-29T12:56:53;13.90;74.20
418;DHT22;49;48.530;9.200;2022-12-29T12:59:36;14.20;72.10
418;DHT22;49;48.530;9.200;2022-12-29T13:02:19;14.40;71.20
418;DHT22;49;48.530;9.200;2022-12-29T13:08:26;14.50;68.70
418;DHT22;49;48.530;9.200;2022-12-29T13:11:04;14.60;68.10
418;DHT22;49;48.530;9.200;2022-12-29T13:14:13;14.80;66.90
418;DHT22;49;48.530;9.200;2022-12-29T13:16:45;14.70;66.20
418;DHT22;49;48.530;9.200;2022-12-29T13:19:20;14.50;67.30
418;DHT22;49;48.530;9.200;2022-12-29T13:22:05;14.60;67.20
418;DHT22;49;48.530;9.200;2022-12-29T13:24:47;14.20;68.30
418;DHT22;49;48.530;9.200;2022-12-29T13:27:32;14.20;67.60
418;DHT22;49;48.530;9.200;2022-12-29T13:30:23;14.30;68.80
418;DHT22;49;48.530;9.200;2022-12-29T13:33:17;14.60;66.40
418;DHT22;49;48.530;9.200;2022-12-29T13:36:00;14.80;64.80
418;DHT22;49;48.530;9.200;2022-12-29T13:38:35;14.80;64.50
418;DHT22;49;48.530;9.200;2022-12-29T13:41:25;15.10;62.50
418;DHT22;49;48.530;9.200;2022-12-29T13:46:49;14.90;63.30
418;DHT22;49;48.530;9.200;2022-12-29T13:49:18;14.80;65.30
418;DHT22;49;48.530;9.200;2022-12-29T13:51:52;15.00;64.00
418;DHT22;49;48.530;9.200;2022-12-29T13:54:35;15.30;60.80
418;DHT22;49;48.530;9.200;2022-12-29T13:57:12;15.30;61.40
418;DHT22;49;48.530;9.200;2022-12-29T13:59:50;15.30;61.60
418;DHT22;49;48.530;9.200;2022-12-29T14:02:31;15.00;62.80
418;DHT22;49;48.530;9.200;2022-12-29T14:05:04;15.00;63.20
418;DHT22;49;48.530;9.200;2022-12-29T14:07:36;15.40;61.30
418;DHT22;49;48.530;9.200;2022-12-29T14:10:05;15.60;59.90
418;DHT22;49;48.530;9.200;2022-12-29T14:12:37;15.70;57.90
418;DHT22;49;48.530;9.200;2022-12-29T14:15:25;15.70;57.80
418;DHT22;49;48.530;9.200;2022-12-29T14:18:09;15.90;55.80
418;DHT22;49;48.530;9.200;2022-12-29T14:20:56;15.40;58.40
418;DHT22;49;48.530;9.200;2022-12-29T14:23:35;15.60;57.40
418;DHT22;49;48.530;9.200;2022-12-29T14:26:13;15.50;58.00
418;DHT22;49;48.530;9.200;2022-12-29T14:28:43;15.30;57.80
418;DHT22;49;48.530;9.200;2022-12-29T14:31:38;15.10;59.00
418;DHT22;49;48.530;9.200;2022-12-29T14:34:28;15.00;58.70
418;DHT22;49;48.530;9.200;2022-12-29T14:36:59;15.10;57.90
418;DHT22;49;48.530;9.200;2022-12-29T14:39:37;15.00;58.80
418;DHT22;49;48.530;9.200;2022-12-29T14:42:06;15.20;57.20
418;DHT22;49;48.530;9.200;2022-12-29T14:44:55;15.50;55.30
418;DHT22;49;48.530;9.200;2022-12-29T14:47:31;15.30;54.40
418;DHT22;49;48.530;9.200;2022-12-29T14:50:05;15.40;54.50
418;DHT22;49;48.530;9.200;2022-12-29T14:52:46;15.10;54.60
418;DHT22;49;48.530;9.200;2022-12-29T14:55:38;15.00;56.10
418;DHT22;49;48.530;9.200;2022-12-29T14:58:12;15.40;53.30
418;DHT22;49;48.530;9.200;2022-12-29T15:00:42;15.10;53.70
418;DHT22;49;48.530;9.200;2022-12-29T15:03:16;15.10;54.20
418;DHT22;49;48.530;9.200;2022-12-29T15:05:46;14.70;55.30
418;DHT22;49;48.530;9.200;2022-12-29T15:08:18;14.50;57.50
418;DHT22;49;48.530;9.200;2022-12-29T15:10:53;14.50;56.80
418;DHT22;49;48.530;9.200;2022-12-29T15:13:23;14.20;58.60
418;DHT22;49;48.530;9.200;2022-12-29T15:15:54;14.50;56.80
418;DHT22;49;48.530;9.200;2022-12-29T15:18:26;14.30;57.40
418;DHT22;49;48.530;9.200;2022-12-29T15:20:55;14.40;56.70
418;DHT22;49;48.530;9.200;2022-12-29T15:23:24;14.30;58.80
418;DHT22;49;48.530;9.200;2022-12-29T15:25:56;14.00;59.20
418;DHT22;49;48.530;9.200;2022-12-29T15:28:39;14.10;59.40
418;DHT22;49;48.530;9.200;2022-12-29T15:31:15;14.40;56.90
418;DHT22;49;48.530;9.200;2022-12-29T15:33:50;14.70;55.10
418;DHT22;49;48.530;9.200;2022-12-29T15:36:20;14.80;53.90
418;DHT22;49;48.530;9.200;2022-12-29T15:38:55;14.50;55.70
418;DHT22;49;48.530;9.200;2022-12-29T15:41:32;14.70;54.90
418;DHT22;49;48.530;9.200;2022-12-29T15:44:34;14.80;53.90
418;DHT22;49;48.530;9.200;2022-12-29T15:47:21;15.10;52.10
418;DHT22;49;48.530;9.200;2022-12-29T15:50:13;15.30;50.70
418;DHT22;49;48.530;9.200;2022-12-29T15:52:43;15.30;49.50
418;DHT22;49;48.530;9.200;2022-12-29T15:55:20;15.30;49.30
418;DHT22;49;48.530;9.200;2022-12-29T15:57:53;15.20;49.70
418;DHT22;49;48.530;9.200;2022-12-29T16:00:26;15.10;50.70
418;DHT22;49;48.530;9.200;2022-12-29T16:03:01;15.30;49.80
418;DHT22;49;48.530;9.200;2022-12-29T16:05:33;15.30;48.60
418;DHT22;49;48.530;9.200;2022-12-29T16:08:18;15.30;48.70
418;DHT22;49;48.530;9.200;2022-12-29T16:10:48;15.50;47.60
418;DHT22;49;48.530;9.200;2022-12-29T16:13:19;15.40;47.90
418;DHT22;49;48.530;9.200;2022-12-29T16:15:50;15.40;47.60
418;DHT22;49;48.530;9.200;2022-12-29T16:18:24;15.50;47.60
418;DHT22;49;48.530;9.200;2022-12-29T16:20:53;15.60;46.00
418;DHT22;49;48.530;9.200;2022-12-29T16:23:24;15.60;46.30
418;DHT22;49;48.530;9.200;2022-12-29T16:25:52;15.60;45.50
418;DHT22;49;48.530;9.200;2022-12-29T16:28:22;15.60;45.50
418;DHT22;49;48.530;9.200;2022-12-29T16:31:03;15.60;44.60
418;DHT22;49;48.530;9.200;2022-12-29T16:34:11;15.60;44.50
418;DHT22;49;48.530;9.200;2022-12-29T16:37:23;15.70;46.00
418;DHT22;49;48.530;9.200;2022-12-29T16:39:53;15.70;46.10
418;DHT22;49;48.530;9.200;2022-12-29T16:42:35;15.80;45.20
418;DHT22;49;48.530;9.200;2022-12-29T16:48:18;15.50;45.30
418;DHT22;49;48.530;9.200;2022-12-29T16:51:01;15.10;48.50
418;DHT22;49;48.530;9.200;2022-12-29T16:53:37;15.40;47.10
418;DHT22;49;48.530;9.200;2022-12-29T16:56:15;15.50;47.30
418;DHT22;49;48.530;9.200;2022-12-29T16:59:02;15.50;45.70
418;DHT22;49;48.530;9.200;2022-12-29T17:01:38;15.50;44.60
418;DHT22;49;48.530;9.200;2022-12-29T17:04:28;15.30;44.50
418;DHT22;49;48.530;9.200;2022-12-29T17:07:07;15.10;45.20
418;DHT22;49;48.530;9.200;2022-12-29T17:09:38;14.90;45.30
418;DHT22;49;48.530;9.200;2022-12-29T17:12:11;14.20;50.60
418;DHT22;49;48.530;9.200;2022-12-29T17:14:43;14.20;51.20
418;DHT22;49;48.530;9.200;2022-12-29T17:17:19;14.30;52.80
418;DHT22;49;48.530;9.200;2022-12-29T17:19:50;14.50;48.80
418;DHT22;49;48.530;9.200;2022-12-29T17:22:20;14.60;47.60
418;DHT22;49;48.530;9.200;2022-12-29T17:24:49;14.70;48.90
418;DHT22;49;48.530;9.200;2022-12-29T17:27:23;14.90;46.30
418;DHT22;49;48.530;9.200;2022-12-29T17:29:52;14.70;47.00
418;DHT22;49;48.530;9.200;2022-12-29T17:32:19;14.40;49.10
418;DHT22;49;48.530;9.200;2022-12-29T17:34:48;14.70;48.30
418;DHT22;49;48.530;9.200;2022-12-29T17:37:30;14.60;50.10
418;DHT22;49;48.530;9.200;2022-12-29T17:39:57;14.80;47.10
418;DHT22;49;48.530;9.200;2022-12-29T17:42:28;15.00;49.10
418;DHT22;49;48.530;9.200;2022-12-29T17:45:00;15.30;47.50
418;DHT22;49;48.530;9.200;2022-12-29T17:47:39;15.50;45.30
418;DHT22;49;48.530;9.200;2022-12-29T17:50:15;15.80;45.30
418;DHT22;49;48.530;9.200;2022-12-29T17:52:53;15.90;42.70
418;DHT22;49;48.530;9.200;2022-12-29T17:55:29;16.00;42.00
418;DHT22;49;48.530;9.200;2022-12-29T17:57:58;16.10;41.00
418;DHT22;49;48.530;9.200;2022-12-29T18:00:30;16.10;40.10
418;DHT22;49;48.530;9.200;2022-12-29T18:02:59;16.00;40.90
418;DHT22;49;48.530;9.200;2022-12-29T18:05:29;16.00;40.90
418;DHT22;49;48.530;9.200;2022-12-29T18:07:59;16.00;40.90
418;DHT22;49;48.530;9.200;2022-12-29T18:10:27;16.00;40.90
418;DHT22;49;48.530;9.200;2022-12-29T18:13:10;16.00;40.90
418;DHT22;49;48.530;9.200;2022-12-29T18:15:47;16.10;41.00
418;DHT22;49;48.530;9.200;2022-12-29T18:18:23;16.00;40.90
418;DHT22;49;48.530;9.200;2022-12-29T18:20:51;16.10;42.50
418;DHT22;49;48.530;9.200;2022-12-29T18:23:21;16.20;41.40
418;DHT22;49;48.530;9.200;2022-12-29T18:25:59;16.30;42.60
418;DHT22;49;48.530;9.200;2022-12-29T18:28:29;16.40;41.30
418;DHT22;49;48.530;9.200;2022-12-29T18:30:59;16.50;41.30
418;DHT22;49;48.530;9.200;2022-12-29T18:33:29;16.70;41.50
418;DHT22;49;48.530;9.200;2022-12-29T18:35:57;16.70;40.70